createdAt,value
2023-12-04T00:01:46.590Z,100.00
2023-12-04T00:04:14.076Z,100.00
2023-12-04T00:06:42.661Z,100.00
2023-12-04T00:09:09.192Z,100.00
2023-12-04T00:11:35.634Z,100.00
2023-12-04T00:14:02.142Z,100.00
2023-12-04T00:16:28.651Z,100.00
2023-12-04T00:18:55.260Z,100.00
2023-12-04T00:21:21.898Z,100.00
2023-12-04T00:23:48.403Z,100.00
2023-12-04T00:26:15.595Z,100.00
2023-12-04T00:28:42.140Z,100.00
2023-12-04T00:31:09.858Z,100.00
2023-12-04T00:33:36.438Z,100.00
2023-12-04T00:36:03.230Z,100.00
2023-12-04T00:38:29.731Z,100.00
2023-12-04T00:40:56.669Z,100.00
2023-12-04T00:43:23.139Z,100.00
2023-12-04T00:45:49.671Z,100.00
2023-12-04T00:48:16.227Z,100.00
2023-12-04T00:50:42.684Z,100.00
2023-12-04T00:53:09.165Z,100.00
2023-12-04T00:55:35.644Z,100.00
2023-12-04T00:58:02.998Z,100.00
2023-12-04T01:00:29.715Z,100.00
2023-12-04T01:02:56.495Z,100.00
2023-12-04T01:05:23.058Z,100.00
2023-12-04T01:07:49.656Z,100.00
2023-12-04T01:10:16.086Z,100.00
2023-12-04T01:12:42.554Z,100.00
2023-12-04T01:15:10.317Z,100.00
2023-12-04T01:17:36.974Z,100.00
2023-12-04T01:20:03.659Z,100.00
2023-12-04T01:22:30.113Z,100.00
2023-12-04T01:24:57.044Z,100.00
2023-12-04T01:27:23.489Z,100.00
2023-12-04T01:29:49.913Z,100.00
2023-12-04T01:32:16.522Z,100.00
2023-12-04T01:34:42.942Z,100.00
2023-12-04T01:37:09.964Z,100.00
2023-12-04T01:39:36.416Z,100.00
2023-12-04T01:42:03.656Z,100.00
2023-12-04T01:44:30.190Z,100.00
2023-12-04T01:46:57.169Z,100.00
2023-12-04T01:49:25.373Z,100.00
2023-12-04T01:51:52.428Z,100.00
2023-12-04T01:54:19.198Z,100.00
2023-12-04T01:56:46.072Z,100.00
2023-12-04T01:59:13.000Z,100.00
2023-12-04T02:01:41.301Z,100.00
2023-12-04T02:04:08.294Z,100.00
2023-12-04T02:06:35.983Z,100.00
2023-12-04T02:09:03.074Z,100.00
2023-12-04T02:11:29.775Z,100.00
2023-12-04T02:13:56.778Z,100.00
2023-12-04T02:16:26.844Z,100.00
2023-12-04T02:21:28.986Z,100.00
2023-12-04T02:23:55.458Z,100.00
2023-12-04T02:26:31.966Z,100.00
2023-12-04T02:29:02.070Z,100.00
2023-12-04T02:31:30.865Z,100.00
2023-12-04T02:34:00.548Z,100.00
2023-12-04T02:36:28.592Z,100.00
2023-12-04T02:38:56.086Z,100.00
2023-12-04T02:41:22.651Z,100.00
2023-12-04T02:43:49.044Z,100.00
2023-12-04T02:46:15.565Z,100.00
2023-12-04T02:48:42.074Z,100.00
2023-12-04T02:51:08.607Z,100.00
2023-12-04T02:53:35.052Z,100.00
2023-12-04T02:56:01.523Z,100.00
2023-12-04T02:58:27.950Z,100.00
2023-12-04T03:00:54.426Z,100.00
2023-12-04T03:03:21.008Z,100.00
2023-12-04T03:05:47.442Z,100.00
2023-12-04T03:08:13.842Z,100.00
2023-12-04T03:10:40.258Z,100.00
2023-12-04T03:13:06.662Z,100.00
2023-12-04T03:15:33.161Z,100.00
2023-12-04T03:18:02.896Z,100.00
2023-12-04T03:20:29.989Z,100.00
2023-12-04T03:22:56.969Z,100.00
2023-12-04T03:25:23.366Z,100.00
2023-12-04T03:27:49.811Z,100.00
2023-12-04T03:30:16.464Z,100.00
2023-12-04T03:32:43.133Z,100.00
2023-12-04T03:35:09.530Z,100.00
2023-12-04T03:37:37.702Z,100.00
2023-12-04T03:40:04.672Z,100.00
2023-12-04T03:42:31.174Z,100.00
2023-12-04T03:44:57.719Z,100.00
2023-12-04T03:47:24.790Z,100.00
2023-12-04T03:49:51.396Z,100.00
2023-12-04T03:52:17.895Z,100.00
2023-12-04T03:54:45.146Z,100.00
2023-12-04T03:57:12.789Z,100.00
2023-12-04T03:59:39.275Z,100.00
2023-12-04T04:02:05.678Z,100.00
2023-12-04T04:04:32.291Z,100.00
2023-12-04T04:06:58.820Z,100.00
2023-12-04T04:09:25.296Z,100.00
2023-12-04T04:11:51.710Z,100.00
2023-12-04T04:14:18.232Z,100.00
2023-12-04T04:16:44.651Z,100.00
2023-12-04T04:19:12.839Z,100.00
2023-12-04T04:21:41.904Z,100.00
2023-12-04T04:24:08.493Z,100.00
2023-12-04T04:26:34.919Z,100.00
2023-12-04T04:29:01.706Z,100.00
2023-12-04T04:31:28.193Z,100.00
2023-12-04T04:33:54.666Z,100.00
2023-12-04T04:36:21.180Z,100.00
2023-12-04T04:38:47.707Z,100.00
2023-12-04T04:41:17.230Z,100.00
2023-12-04T04:43:43.848Z,100.00
2023-12-04T04:46:10.447Z,100.00
2023-12-04T04:48:37.102Z,100.00
2023-12-04T04:51:03.968Z,100.00
2023-12-04T04:53:30.537Z,100.00
2023-12-04T04:55:56.981Z,100.00
2023-12-04T04:58:23.340Z,100.00
2023-12-04T05:00:49.746Z,100.00
2023-12-04T05:03:16.509Z,100.00
2023-12-04T05:05:43.151Z,100.00
2023-12-04T05:08:09.692Z,100.00
2023-12-04T05:10:36.145Z,100.00
2023-12-04T05:13:02.745Z,100.00
2023-12-04T05:15:29.326Z,100.00
2023-12-04T05:17:55.806Z,100.00
2023-12-04T05:20:22.271Z,100.00
2023-12-04T05:22:50.466Z,100.00
2023-12-04T05:25:16.948Z,100.00
2023-12-04T05:27:43.385Z,100.00
2023-12-04T05:30:10.166Z,100.00
2023-12-04T05:32:36.844Z,100.00
2023-12-04T05:35:03.931Z,100.00
2023-12-04T05:37:30.496Z,100.00
2023-12-04T05:39:57.135Z,100.00
2023-12-04T05:42:23.585Z,100.00
2023-12-04T05:44:50.062Z,100.00
2023-12-04T05:47:16.498Z,100.00
2023-12-04T05:49:43.241Z,100.00
2023-12-04T05:52:09.727Z,100.00
2023-12-04T05:54:36.194Z,100.00
2023-12-04T05:57:02.710Z,100.00
2023-12-04T05:59:29.158Z,100.00
2023-12-04T06:01:55.652Z,100.00
2023-12-04T06:04:22.101Z,100.00
2023-12-04T06:06:48.504Z,100.00
2023-12-04T06:09:17.226Z,100.00
2023-12-04T06:11:46.095Z,100.00
2023-12-04T06:14:14.242Z,100.00
2023-12-04T06:16:40.684Z,100.00
2023-12-04T06:19:07.168Z,100.00
2023-12-04T06:21:34.010Z,100.00
2023-12-04T06:24:00.908Z,100.00
2023-12-04T06:26:27.606Z,100.00
2023-12-04T06:28:54.345Z,100.00
2023-12-04T06:31:21.138Z,100.00
2023-12-04T06:33:47.918Z,100.00
2023-12-04T06:36:15.986Z,100.00
2023-12-04T06:38:42.971Z,100.00
2023-12-04T06:41:10.107Z,100.00
2023-12-04T06:43:36.905Z,100.00
2023-12-04T06:46:03.980Z,100.00
2023-12-04T06:48:30.854Z,100.00
2023-12-04T06:50:57.580Z,100.00
2023-12-04T06:53:24.007Z,100.00
2023-12-04T06:55:50.397Z,100.00
2023-12-04T06:58:16.863Z,100.00
2023-12-04T07:00:43.369Z,100.00
2023-12-04T07:03:09.816Z,100.00
2023-12-04T07:05:36.426Z,100.00
2023-12-04T07:08:03.973Z,100.00
2023-12-04T07:10:32.438Z,100.00
2023-12-04T07:13:00.464Z,100.00
2023-12-04T07:15:26.944Z,100.00
2023-12-04T07:17:54.749Z,100.00
2023-12-04T07:20:24.919Z,100.00
2023-12-04T07:22:51.352Z,100.00
2023-12-04T07:25:17.819Z,100.00
2023-12-04T07:27:44.300Z,100.00
2023-12-04T07:30:12.049Z,100.00
2023-12-04T07:32:38.738Z,100.00
2023-12-04T07:35:06.083Z,100.00
2023-12-04T07:37:33.140Z,100.00
2023-12-04T07:39:59.672Z,100.00
2023-12-04T07:42:26.195Z,100.00
2023-12-04T07:44:52.686Z,100.00
2023-12-04T07:47:19.118Z,100.00
2023-12-04T07:49:46.245Z,100.00
2023-12-04T07:52:12.908Z,100.00
2023-12-04T07:54:39.962Z,99.82
2023-12-04T07:57:06.450Z,99.86
2023-12-04T07:59:32.977Z,99.81
2023-12-04T08:01:59.838Z,99.48
2023-12-04T08:04:26.450Z,99.62
2023-12-04T08:06:52.880Z,99.41
2023-12-04T08:09:19.343Z,99.48
2023-12-04T08:11:46.477Z,99.56
2023-12-04T08:14:13.134Z,99.30
2023-12-04T08:16:39.593Z,98.86
2023-12-04T08:19:06.271Z,98.77
2023-12-04T08:21:33.257Z,98.80
2023-12-04T08:23:59.825Z,98.55
2023-12-04T08:26:26.748Z,98.45
2023-12-04T08:28:53.650Z,98.23
2023-12-04T08:31:20.255Z,98.11
2023-12-04T08:33:47.178Z,97.82
2023-12-04T08:36:13.774Z,97.38
2023-12-04T08:38:40.371Z,97.02
2023-12-04T08:41:07.207Z,96.67
2023-12-04T08:43:33.841Z,96.44
2023-12-04T08:46:01.884Z,95.80
2023-12-04T08:48:28.541Z,95.43
2023-12-04T08:50:55.501Z,95.24
2023-12-04T08:53:22.052Z,95.02
2023-12-04T08:55:48.699Z,95.25
2023-12-04T08:58:15.333Z,95.22
2023-12-04T09:00:44.440Z,95.38
2023-12-04T09:03:18.074Z,95.29
2023-12-04T09:05:51.628Z,94.31
2023-12-04T09:08:31.547Z,94.43
2023-12-04T09:11:18.195Z,94.25
2023-12-04T09:13:49.547Z,93.72
2023-12-04T09:16:16.322Z,92.69
2023-12-04T09:18:43.005Z,92.19
2023-12-04T09:21:09.781Z,92.16
2023-12-04T09:23:36.818Z,92.29
2023-12-04T09:26:03.729Z,92.26
2023-12-04T09:28:30.377Z,92.19
2023-12-04T09:30:57.673Z,92.04
2023-12-04T09:33:24.234Z,91.61
2023-12-04T09:35:50.707Z,90.82
2023-12-04T09:38:17.715Z,90.34
2023-12-04T09:40:44.348Z,90.16
2023-12-04T09:43:11.780Z,90.03
2023-12-04T09:45:39.740Z,90.31
2023-12-04T09:48:07.310Z,90.07
2023-12-04T09:50:34.241Z,89.48
2023-12-04T09:53:02.579Z,89.05
2023-12-04T09:55:29.055Z,88.84
2023-12-04T09:57:57.851Z,88.94
2023-12-04T10:00:25.482Z,89.10
2023-12-04T10:02:53.325Z,88.82
2023-12-04T10:05:19.991Z,89.14
2023-12-04T10:07:46.379Z,89.17
2023-12-04T10:10:12.851Z,88.88
2023-12-04T10:12:39.544Z,88.89
2023-12-04T10:15:06.404Z,88.73
2023-12-04T10:17:39.937Z,88.36
2023-12-04T10:20:18.450Z,88.56
2023-12-04T10:23:03.388Z,88.20
2023-12-04T10:25:31.605Z,88.11
2023-12-04T10:28:17.322Z,87.54
2023-12-04T10:30:44.355Z,86.94
2023-12-04T10:33:11.440Z,85.77
2023-12-04T10:35:38.222Z,85.26
2023-12-04T10:38:06.435Z,85.28
2023-12-04T10:40:34.996Z,85.69
2023-12-04T10:43:22.541Z,85.32
2023-12-04T10:45:50.704Z,85.77
2023-12-04T10:48:20.089Z,85.61
2023-12-04T10:50:49.458Z,85.73
2023-12-04T10:53:17.661Z,85.65
2023-12-04T10:55:45.708Z,85.64
2023-12-04T10:58:18.157Z,85.59
2023-12-04T11:00:49.709Z,85.54
2023-12-04T11:03:38.566Z,85.47
2023-12-04T11:06:08.872Z,85.25
2023-12-04T11:08:37.346Z,84.42
2023-12-04T11:11:08.544Z,84.41
2023-12-04T11:13:44.842Z,84.30
2023-12-04T11:16:28.641Z,84.36
2023-12-04T11:19:02.926Z,84.17
2023-12-04T11:21:33.222Z,84.18
2023-12-04T11:24:00.405Z,84.07
2023-12-04T11:26:27.591Z,84.76
2023-12-04T11:28:54.974Z,84.03
2023-12-04T11:31:21.881Z,84.21
2023-12-04T11:33:48.378Z,83.58
2023-12-04T11:36:16.746Z,83.68
2023-12-04T11:38:48.362Z,84.44
2023-12-04T11:41:26.052Z,84.84
2023-12-04T11:43:56.879Z,84.38
2023-12-04T11:46:26.432Z,84.48
2023-12-04T11:49:15.900Z,84.24
2023-12-04T11:51:48.366Z,84.01
2023-12-04T11:54:16.239Z,84.09
2023-12-04T11:57:01.170Z,84.31
2023-12-04T11:59:28.162Z,84.55
2023-12-04T12:01:57.378Z,84.61
2023-12-04T12:04:24.479Z,84.47
2023-12-04T12:06:51.759Z,84.27
2023-12-04T12:09:20.190Z,84.32
2023-12-04T12:11:46.739Z,84.39
2023-12-04T12:14:14.213Z,84.43
2023-12-04T12:16:41.020Z,84.50
2023-12-04T12:19:07.546Z,84.48
2023-12-04T12:21:34.183Z,84.73
2023-12-04T12:26:48.495Z,84.46
2023-12-04T12:29:15.026Z,84.32
2023-12-04T12:31:41.444Z,84.83
2023-12-04T12:34:08.077Z,84.77
2023-12-04T12:36:34.833Z,84.31
2023-12-04T12:39:04.799Z,84.73
2023-12-04T12:41:32.208Z,84.88
2023-12-04T12:43:58.719Z,84.56
2023-12-04T12:46:25.115Z,84.58
2023-12-04T12:48:52.628Z,84.21
2023-12-04T12:51:19.732Z,84.07
2023-12-04T12:53:50.973Z,83.78
2023-12-04T12:56:19.131Z,84.51
2023-12-04T12:58:45.735Z,83.93
2023-12-04T13:01:13.393Z,84.24
2023-12-04T13:03:40.228Z,84.53
2023-12-04T13:06:07.173Z,84.50
2023-12-04T13:08:33.701Z,84.15
2023-12-04T13:11:00.701Z,84.46
2023-12-04T13:13:28.172Z,84.79
2023-12-04T13:15:55.508Z,84.07
2023-12-04T13:18:22.036Z,84.00
2023-12-04T13:20:48.536Z,84.13
2023-12-04T13:23:15.081Z,84.35
2023-12-04T13:25:41.660Z,84.49
2023-12-04T13:28:09.670Z,85.39
2023-12-04T13:30:39.843Z,85.41
2023-12-04T13:33:06.750Z,85.28
2023-12-04T13:35:33.923Z,85.28
2023-12-04T13:38:00.734Z,84.87
2023-12-04T13:40:29.494Z,85.03
2023-12-04T13:43:14.696Z,84.58
2023-12-04T13:45:41.175Z,84.93
2023-12-04T13:48:07.746Z,85.13
2023-12-04T13:50:34.429Z,85.09
2023-12-04T13:53:01.819Z,85.16
2023-12-04T13:55:46.786Z,86.50
2023-12-04T13:58:33.262Z,86.91
2023-12-04T14:01:01.609Z,86.39
2023-12-04T14:03:30.038Z,86.04
2023-12-04T14:05:57.025Z,86.01
2023-12-04T14:08:23.849Z,85.98
2023-12-04T14:10:50.694Z,86.21
2023-12-04T14:13:17.967Z,86.64
2023-12-04T14:15:44.666Z,86.32
2023-12-04T14:18:11.713Z,86.37
2023-12-04T14:20:38.371Z,86.17
2023-12-04T14:23:06.063Z,86.62
2023-12-04T14:25:32.507Z,86.50
2023-12-04T14:27:58.941Z,86.54
2023-12-04T14:30:28.511Z,86.54
2023-12-04T14:32:56.078Z,86.83
2023-12-04T14:35:22.598Z,86.79
2023-12-04T14:37:49.044Z,87.09
2023-12-04T14:40:16.598Z,87.20
2023-12-04T14:42:44.741Z,87.26
2023-12-04T14:45:11.165Z,87.02
2023-12-04T14:47:38.010Z,87.33
2023-12-04T14:50:05.487Z,87.69
2023-12-04T14:52:35.036Z,87.96
2023-12-04T14:58:15.405Z,88.81
2023-12-04T15:01:20.184Z,88.94
2023-12-04T15:04:05.349Z,89.28
2023-12-04T15:06:42.235Z,89.40
2023-12-04T15:09:17.510Z,89.85
2023-12-04T15:12:19.366Z,90.00
2023-12-04T15:14:45.815Z,90.67
2023-12-04T15:17:33.547Z,90.71
2023-12-04T15:20:00.042Z,90.79
2023-12-04T15:22:26.488Z,91.44
2023-12-04T15:24:52.930Z,91.53
2023-12-04T15:27:19.359Z,92.01
2023-12-04T15:29:46.291Z,92.05
2023-12-04T15:32:12.725Z,92.25
2023-12-04T15:34:39.150Z,92.36
2023-12-04T15:37:05.532Z,92.61
2023-12-04T15:39:32.746Z,92.62
2023-12-04T15:41:59.234Z,92.93
2023-12-04T15:44:26.483Z,93.09
2023-12-04T15:46:52.962Z,93.22
2023-12-04T15:49:19.841Z,93.70
2023-12-04T15:51:46.431Z,93.72
2023-12-04T15:54:12.948Z,93.96
2023-12-04T15:56:39.378Z,94.23
2023-12-04T15:59:05.860Z,94.91
2023-12-04T16:01:32.318Z,95.33
2023-12-04T16:03:59.019Z,95.72
2023-12-04T16:06:25.930Z,96.17
2023-12-04T16:08:52.461Z,96.42
2023-12-04T16:11:19.317Z,96.75
2023-12-04T16:13:45.747Z,97.08
2023-12-04T16:16:12.312Z,97.34
2023-12-04T16:18:39.773Z,97.76
2023-12-04T16:21:06.492Z,97.91
2023-12-04T16:23:32.922Z,98.40
2023-12-04T16:25:59.784Z,98.39
2023-12-04T16:28:26.887Z,98.79
2023-12-04T16:30:56.876Z,99.20
2023-12-04T16:33:23.423Z,99.24
2023-12-04T16:35:49.980Z,99.49
2023-12-04T16:38:16.393Z,99.68
2023-12-04T16:40:42.803Z,100.00
2023-12-04T16:43:09.213Z,100.00
2023-12-04T16:45:35.806Z,100.00
2023-12-04T16:48:02.614Z,100.00
2023-12-04T16:50:30.309Z,100.00
2023-12-04T16:52:56.823Z,100.00
2023-12-04T16:55:23.297Z,100.00
2023-12-04T16:57:49.784Z,100.00
2023-12-04T17:00:16.608Z,100.00
2023-12-04T17:02:43.308Z,100.00
2023-12-04T17:05:10.112Z,100.00
2023-12-04T17:07:36.655Z,100.00
2023-12-04T17:10:03.308Z,100.00
2023-12-04T17:12:32.417Z,100.00
2023-12-04T17:14:59.137Z,100.00
2023-12-04T17:17:25.649Z,100.00
2023-12-04T17:19:52.232Z,100.00
2023-12-04T17:22:18.714Z,100.00
2023-12-04T17:24:45.540Z,100.00
2023-12-04T17:27:12.083Z,100.00
2023-12-04T17:29:38.667Z,100.00
2023-12-04T17:32:05.444Z,100.00
2023-12-04T17:34:32.452Z,100.00
2023-12-04T17:36:59.015Z,100.00
2023-12-04T17:39:25.579Z,100.00
2023-12-04T17:41:52.035Z,100.00
2023-12-04T17:44:18.530Z,100.00
2023-12-04T17:46:45.091Z,100.00
2023-12-04T17:49:14.848Z,100.00
2023-12-04T17:51:41.616Z,100.00
2023-12-04T17:54:08.269Z,100.00
2023-12-04T17:56:35.524Z,100.00
2023-12-04T17:59:03.732Z,100.00
2023-12-04T18:01:30.437Z,100.00
2023-12-04T18:03:57.358Z,100.00
2023-12-04T18:06:32.899Z,100.00
2023-12-04T18:08:59.456Z,100.00
2023-12-04T18:11:26.114Z,100.00
2023-12-04T18:13:53.765Z,100.00
2023-12-04T18:16:21.758Z,100.00
2023-12-04T18:18:49.417Z,100.00
2023-12-04T18:21:17.174Z,100.00
2023-12-04T18:23:43.639Z,100.00
2023-12-04T18:26:10.777Z,100.00
2023-12-04T18:28:37.986Z,100.00
2023-12-04T18:31:05.333Z,100.00
2023-12-04T18:33:36.506Z,100.00
2023-12-04T18:36:06.550Z,100.00
2023-12-04T18:38:40.160Z,100.00
2023-12-04T18:41:07.053Z,100.00
2023-12-04T18:43:34.744Z,100.00
2023-12-04T18:46:01.660Z,100.00
2023-12-04T18:48:32.847Z,100.00
2023-12-04T18:50:59.812Z,100.00
2023-12-04T18:53:26.446Z,100.00
2023-12-04T18:55:52.867Z,100.00
2023-12-04T18:58:19.322Z,100.00
2023-12-04T19:00:45.838Z,100.00
2023-12-04T19:03:12.388Z,100.00
2023-12-04T19:05:39.153Z,100.00
2023-12-04T19:08:06.705Z,100.00
2023-12-04T19:10:33.164Z,100.00
2023-12-04T19:12:59.854Z,100.00
2023-12-04T19:15:27.424Z,100.00
2023-12-04T19:17:54.096Z,100.00
2023-12-04T19:20:20.691Z,100.00
2023-12-04T19:22:47.142Z,100.00
2023-12-04T19:25:14.696Z,100.00
2023-12-04T19:27:41.464Z,100.00
2023-12-04T19:30:08.823Z,100.00
2023-12-04T19:32:35.804Z,100.00
2023-12-04T19:35:02.639Z,100.00
2023-12-04T19:37:29.555Z,100.00
2023-12-04T19:39:55.973Z,100.00
2023-12-04T19:42:27.061Z,100.00
2023-12-04T19:44:55.131Z,100.00
2023-12-04T19:47:22.246Z,100.00
2023-12-04T19:49:48.871Z,100.00
2023-12-04T19:52:15.373Z,100.00
2023-12-04T19:54:43.180Z,100.00
2023-12-04T19:57:09.852Z,100.00
2023-12-04T19:59:36.919Z,100.00
2023-12-04T20:02:03.717Z,100.00
2023-12-04T20:04:30.518Z,100.00
2023-12-04T20:06:57.024Z,100.00
2023-12-04T20:09:23.701Z,100.00
2023-12-04T20:11:50.213Z,100.00
2023-12-04T20:14:16.963Z,100.00
2023-12-04T20:16:49.702Z,100.00
2023-12-04T20:19:16.302Z,100.00
2023-12-04T20:21:43.554Z,100.00
2023-12-04T20:24:10.188Z,100.00
2023-12-04T20:26:36.716Z,100.00
2023-12-04T20:29:03.585Z,100.00
2023-12-04T20:31:30.022Z,100.00
2023-12-04T20:33:56.897Z,100.00
2023-12-04T20:36:23.678Z,100.00
2023-12-04T20:38:51.859Z,100.00
2023-12-04T20:41:20.772Z,100.00
2023-12-04T20:43:47.336Z,100.00
2023-12-04T20:46:14.923Z,100.00
2023-12-04T20:48:41.560Z,100.00
2023-12-04T20:51:08.822Z,100.00
2023-12-04T20:53:35.337Z,100.00
2023-12-04T20:56:01.766Z,100.00
2023-12-04T20:58:28.554Z,100.00
2023-12-04T21:00:55.266Z,100.00
2023-12-04T21:03:21.796Z,100.00
2023-12-04T21:05:48.991Z,100.00
2023-12-04T21:08:15.770Z,100.00
2023-12-04T21:10:42.232Z,100.00
2023-12-04T21:13:08.652Z,100.00
2023-12-04T21:15:37.925Z,100.00
2023-12-04T21:18:04.639Z,100.00
2023-12-04T21:20:31.136Z,100.00
2023-12-04T21:22:57.529Z,100.00
2023-12-04T21:25:24.508Z,100.00
2023-12-04T21:27:51.032Z,100.00
2023-12-04T21:30:20.683Z,100.00
2023-12-04T21:32:48.043Z,100.00
2023-12-04T21:35:14.473Z,100.00
2023-12-04T21:37:40.923Z,100.00
2023-12-04T21:40:08.021Z,100.00
2023-12-04T21:42:35.540Z,100.00
2023-12-04T21:45:02.108Z,100.00
2023-12-04T21:47:28.734Z,100.00
2023-12-04T21:49:55.824Z,100.00
2023-12-04T21:52:22.394Z,100.00
2023-12-04T21:54:49.694Z,100.00
2023-12-04T21:57:16.340Z,100.00
2023-12-04T21:59:42.821Z,100.00
2023-12-04T22:02:09.298Z,100.00
2023-12-04T22:04:36.425Z,100.00
2023-12-04T22:07:03.190Z,100.00
2023-12-04T22:09:29.866Z,100.00
2023-12-04T22:11:56.680Z,100.00
2023-12-04T22:14:26.457Z,100.00
2023-12-04T22:16:52.979Z,100.00
2023-12-04T22:19:19.560Z,100.00
2023-12-04T22:21:46.933Z,100.00
2023-12-04T22:24:13.577Z,100.00
2023-12-04T22:26:40.044Z,100.00
2023-12-04T22:29:06.509Z,100.00
2023-12-04T22:31:32.995Z,100.00
2023-12-04T22:33:59.597Z,100.00
2023-12-04T22:36:26.150Z,100.00
2023-12-04T22:38:52.620Z,100.00
2023-12-04T22:41:19.280Z,100.00
2023-12-04T22:43:46.384Z,100.00
2023-12-04T22:46:12.977Z,100.00
2023-12-04T22:48:39.817Z,100.00
2023-12-04T22:51:06.767Z,100.00
2023-12-04T22:53:33.259Z,100.00
2023-12-04T22:55:59.724Z,100.00
2023-12-04T22:58:26.242Z,100.00
2023-12-04T23:00:54.332Z,100.00
2023-12-04T23:03:21.673Z,100.00
2023-12-04T23:05:49.871Z,100.00
2023-12-04T23:08:18.528Z,100.00
2023-12-04T23:10:45.303Z,100.00
2023-12-04T23:13:11.890Z,100.00
2023-12-04T23:15:38.315Z,100.00
2023-12-04T23:18:05.221Z,100.00
2023-12-04T23:20:32.366Z,100.00
2023-12-04T23:22:58.843Z,100.00
2023-12-04T23:25:25.349Z,100.00
2023-12-04T23:27:51.786Z,100.00
2023-12-04T23:30:18.264Z,100.00
2023-12-04T23:32:44.745Z,100.00
2023-12-04T23:35:12.220Z,100.00
2023-12-04T23:37:38.655Z,100.00
2023-12-04T23:40:05.979Z,100.00
2023-12-04T23:42:32.456Z,100.00
2023-12-04T23:44:58.941Z,100.00
2023-12-04T23:47:25.886Z,100.00
2023-12-04T23:49:52.361Z,100.00
2023-12-04T23:52:19.231Z,100.00
2023-12-04T23:54:46.430Z,100.00
2023-12-04T23:57:12.897Z,100.00
2023-12-04T23:59:39.304Z,100.00
